Etusivu
METAR-TAF:

METAR-TAF

Lentoasemat :

Kuwaitin kansainvälinen lentoasema

Kuwait, Kuwait

Leveyspiiri: 29-13N, Pituuspiiri: 047-59E, korkeus merenpinnasta: 55 m

Tämänhetkinen sää

Tämä raportti tehtiin 1 tunti ja 3 minuuttia sitten, kello 14.00 UTC
Tuuli 4 kn kaakosta
Lämpötila 34°C
Kosteus 30%
Ilmanpaine 1012 hPa
Näkyvyys: 6000 m
selkeää

METAR: OKBK 161400Z 13004KT 6000 SKC 34/14 Q1012 NOSIG

Aika: 18:03 (15:03 UTC)

Sääennuste

Tämä raportti tehtiin 4 tuntia ja 18 minuuttia sitten, kello 10.45 UTC
Ennuste voimassa 16. päivästä klo 12 UTC - 17. päivään klo 18 UTC
Tuuli 10 kn idästä
Näkyvyys: 6000 m
Todennäköisyys 30% :
Ajoittain
16. päivästä klo 12 UTC - 16. päivään klo 18 UTC
Tuuli 10 kn etelästä/kaakosta puuskistuen 20 kn:hen
Näkyvyys: 3000 m
Muutamia pilviä 3000 ft:n korkeudessa, Cumulonimbus.

TAF: OKBK 161045Z 1612/1718 08010KT 6000 NSC PROB30 TEMPO 1612/1618 15010G20KT 3000 -TSRA/BLDU FEW030CB

Säähavainnot ja -ennusteet yli 4000 lentoasemalta (METAR- ja TAF-raportit).

Käytössä olevat sääasemat on merkitty karttaan keltaisilla ja punaisilla pisteillä.

Aseta hiiri pisteen päälle nähdäksesi sääaseman nimen.

Klikkaa sitten nähdäksesi säähavainnot ja -ennusteet.

Kartan vaihtaminen: klikkaa mustalla rastilla varustettuja vihreitä pisteitä, niin voit zoomata sisään; viivalla varustettua vihreää pistettä, niin voit zoomata ulos tai vihreitä nuolia, niin pääset viereisille kartoille.


METAR-TAF: